00CO weather

CLOSED Cass Field
Briggsdale, Colorado, United States

Public forecast

Using degrees Fahrenheit for public forecast. Weather courtesy of forecast.io.

METAR (pilot weather report)

Closest report is Greeley–Weld County Airport, 17.2 nm (31.9 km) SW. Retrieved 2019/08/20 02:28 UTC (13 minutes ago):

KGXY 200228Z AUTO 10007KT 3SM HZ 27/09 A3003 RMK AO2 $

TAF (pilot weather forecast)

Forecast is more than 12 hours old.

Closest forecast is Cheyenne Regional Jerry Olson Field, 38.4 nm (71.2 km) NNW. Retrieved 2019/08/19 00:22 UTC (1 day ago):

TAF KCYS 192320Z 2000/2024 03006KT P6SM SCT120 FM200300 29008KT P6SM SKC FM201500 10010G20KT P6SM SCT100